WSAP/QPG METAR and TAF weather

Enter ICAO airport designator
Station Type Date Time Source
WSAP METAR 2020/04/03 07:00 UTC NOAA

WSAP 030700Z 36004KT 9999 FEW018 BKN300 33/25 Q1008


Station Type Date Time Source
WSAP Decoded METAR 2020/04/03 07:00 UTC NOAA

Singapore / Paya Lebar, Singapore (WSAP) 01-22N 103-55E 32M
Apr 03, 2020 - 03:00 AM EDT / 2020.04.03 0700 UTC
Wind: from the N (360 degrees) at 5 MPH (4 KT):0
Visibility: greater than 7 mile(s):0
Sky conditions: mostly cloudy
Temperature: 91 F (33 C)
Heat index: 103.5 F (39.7 C):1
Dew Point: 77 F (25 C)
Relative Humidity: 62%
Pressure (altimeter): 29.77 in. Hg (1008 hPa)
ob: WSAP 030700Z 36004KT 9999 FEW018 BKN300 33/25 Q1008
cycle: 7

Station Type Date Time Source
WSAP TAF 2020/04/03 06:06 UTC NOAA

TAF TAF WSAP 030500Z 0306/0412 04009KT 9999 FEW015 SCT020

Example: see airport list